Time;durP1;ratioP1;P1;durP2;ratioP2;P2;SDS_P1;SDS_P2;PMS_P1;PMS_P2;Temp;Humidity;BMP_temperature;BMP_pressure;BME280_temperature;BME280_humidity;BME280_pressure;Samples;Min_cycle;Max_cycle;Signal;HPM_P1;HPM_P2
2022/04/22 00:00:38;;;;;;;22.50;18.97;;;7.70;81.30;;;6.37;78.40;96951.84;5029986;28;20899;-75
2022/04/22 00:03:07;;;;;;;22.10;19.07;;;7.60;81.20;;;6.41;78.15;96956.78;5037119;28;20976;-75
2022/04/22 00:05:34;;;;;;;22.23;19.30;;;7.70;81.30;;;6.47;77.34;96955.91;5026213;28;20500;-77
2022/04/22 00:08:03;;;;;;;22.97;19.83;;;7.70;81.30;;;6.40;77.56;96945.19;5027384;28;20475;-80
2022/04/22 00:10:30;;;;;;;22.57;19.87;;;7.70;81.20;;;6.49;77.71;96951.97;5025931;28;20461;-75
2022/04/22 00:12:57;;;;;;;21.37;19.17;;;7.80;80.90;;;6.62;76.98;96945.69;5023945;28;20551;-74
2022/04/22 00:15:24;;;;;;;21.50;19.20;;;7.80;80.70;;;6.63;77.19;96946.53;5025900;28;20539;-78
2022/04/22 00:17:51;;;;;;;21.40;19.10;;;7.90;80.80;;;6.63;77.21;96941.97;5038605;28;20462;-75
2022/04/22 00:20:18;;;;;;;21.67;18.30;;;7.90;80.50;;;6.66;76.93;96948.78;5030248;28;20501;-78
2022/04/22 00:22:45;;;;;;;24.50;19.37;;;7.90;80.60;;;6.61;77.29;96935.19;5021496;28;20891;-76
2022/04/22 00:25:15;;;;;;;20.73;18.20;;;7.90;80.60;;;6.63;77.14;96941.97;5017697;28;20461;-78
2022/04/22 00:27:42;;;;;;;22.73;19.13;;;7.90;80.50;;;6.64;77.09;96930.19;5021666;28;20463;-77
2022/04/22 00:30:11;;;;;;;24.17;20.53;;;7.90;80.60;;;6.50;77.15;96926.78;5020300;28;20476;-75
2022/04/22 00:32:39;;;;;;;20.43;18.10;;;7.90;80.50;;;6.52;77.63;96924.69;5020242;28;20565;-75
2022/04/22 00:35:07;;;;;;;23.23;19.30;;;7.80;80.60;;;6.51;77.16;96920.38;5023518;28;20517;-75
2022/04/22 00:37:34;;;;;;;22.47;19.00;;;7.80;80.70;;;6.49;77.57;96921.63;5023052;28;20470;-75
2022/04/22 00:40:01;;;;;;;22.03;19.77;;;7.80;81.00;;;6.32;77.91;96894.50;5019688;28;20469;-75
2022/04/22 00:42:29;;;;;;;21.10;17.90;;;7.80;80.90;;;6.40;77.54;96902.28;5020952;28;20461;-73
2022/04/22 00:44:57;;;;;;;23.60;21.00;;;7.70;80.90;;;6.32;77.97;96900.66;5035939;28;20539;-78
2022/04/22 00:47:25;;;;;;;22.87;19.10;;;7.60;81.40;;;6.31;77.78;96900.91;5022818;28;23136;-77
2022/04/22 00:49:52;;;;;;;23.00;18.57;;;7.60;81.50;;;6.00;78.17;96835.44;5021026;28;20468;-76
2022/04/22 00:52:20;;;;;;;22.10;19.73;;;7.60;81.70;;;6.27;78.49;96895.13;5025579;28;20454;-78
2022/04/22 00:54:48;;;;;;;23.43;20.20;;;7.60;81.80;;;6.24;78.34;96899.06;5029626;28;20486;-81
2022/04/22 00:57:18;;;;;;;22.67;19.20;;;7.50;82.10;;;5.96;78.10;96849.25;5022153;28;20439;-80
2022/04/22 00:59:47;;;;;;;21.13;18.60;;;7.60;82.10;;;6.28;78.63;96887.88;5019778;28;20551;-76
2022/04/22 01:02:14;;;;;;;24.03;19.90;;;7.60;82.10;;;6.27;78.43;96880.88;5031023;28;20433;-79
2022/04/22 01:10:11;;;;;;;20.30;18.13;;;7.60;82.00;;;6.28;78.52;96875.31;5034975;28;20442;-77
2022/04/22 01:12:38;;;;;;;22.43;20.00;;;7.60;81.80;;;6.28;78.11;96869.13;5004075;28;20454;-78
2022/04/22 01:15:07;;;;;;;24.53;19.70;;;7.60;81.80;;;6.23;78.69;96881.31;5031339;28;20505;-76
2022/04/22 01:17:34;;;;;;;22.70;18.80;;;7.50;81.80;;;6.19;78.69;96868.56;5035060;28;20537;-77
2022/04/22 01:20:01;;;;;;;22.70;19.83;;;7.50;82.10;;;6.08;78.87;96872.75;5021890;28;20462;-78
2022/04/22 01:22:29;;;;;;;22.73;17.67;;;7.40;82.30;;;6.06;79.00;96864.09;5025063;28;20468;-78
2022/04/22 01:24:59;;;;;;;20.47;18.20;;;7.40;82.70;;;6.01;78.85;96869.25;5017265;28;20448;-77
2022/04/22 01:27:29;;;;;;;25.57;21.30;;;7.30;83.00;;;5.91;79.43;96858.97;5025966;28;20464;-74
2022/04/22 01:29:57;;;;;;;24.13;19.73;;;7.20;83.30;;;5.77;79.49;96847.50;5040668;28;20464;-76
2022/04/22 01:32:26;;;;;;;21.97;19.27;;;7.20;83.70;;;5.85;80.06;96852.63;5028304;28;21065;-77
2022/04/22 01:34:53;;;;;;;24.60;20.93;;;7.10;83.90;;;5.80;80.46;96849.75;5027687;28;20480;-78
2022/04/22 01:37:20;;;;;;;22.17;19.53;;;7.10;84.30;;;5.73;79.90;96839.06;5029655;28;20466;-76
2022/04/22 01:39:49;;;;;;;24.00;18.83;;;7.10;84.50;;;5.68;80.58;96844.25;5022433;28;20514;-76
2022/04/22 01:42:18;;;;;;;25.00;19.47;;;7.00;84.90;;;5.62;81.15;96845.09;5038399;28;20540;-77
2022/04/22 01:44:45;;;;;;;22.63;19.27;;;6.90;85.20;;;5.52;81.22;96821.41;5027020;28;20441;-76
2022/04/22 01:47:12;;;;;;;22.27;19.90;;;6.90;85.30;;;5.57;80.60;96840.38;5028933;28;20459;-76
2022/04/22 01:49:39;;;;;;;25.13;19.80;;;6.90;85.30;;;5.50;81.17;96835.03;5023709;28;20447;-74
2022/04/22 01:52:08;;;;;;;24.00;19.97;;;6.80;85.70;;;5.49;81.67;96835.25;5029163;28;20523;-76
2022/04/22 01:54:35;;;;;;;21.00;18.70;;;6.80;86.20;;;5.43;81.58;96838.78;5023169;28;20492;-74
2022/04/22 01:57:03;;;;;;;21.37;19.10;;;6.70;86.50;;;5.38;81.33;96826.84;5028394;28;20904;-75
2022/04/22 01:59:30;;;;;;;23.13;19.30;;;6.70;87.30;;;5.37;81.52;96833.22;5026104;28;20546;-75
2022/04/22 02:01:58;;;;;;;24.83;19.73;;;6.70;86.90;;;5.38;81.76;96821.50;5025803;28;20466;-75
2022/04/22 02:04:25;;;;;;;22.23;19.83;;;6.70;87.20;;;5.26;82.81;96823.19;5023839;28;20455;-75
2022/04/22 02:06:52;;;;;;;19.73;17.20;;;6.60;87.50;;;5.34;81.57;96814.91;5040797;28;20516;-77
2022/04/22 02:09:19;;;;;;;22.70;19.27;;;6.60;87.60;;;5.31;81.73;96820.69;5021004;28;20463;-73
2022/04/22 02:11:46;;;;;;;21.83;18.70;;;6.60;87.10;;;5.39;81.56;96819.63;5025114;28;20520;-77
2022/04/22 02:14:14;;;;;;;20.60;17.70;;;6.70;87.60;;;5.29;81.66;96804.00;5027492;28;20562;-77
2022/04/22 02:16:41;;;;;;;22.90;19.33;;;6.60;88.10;;;5.30;81.78;96813.69;5032704;28;20495;-74
2022/04/22 02:19:09;;;;;;;20.23;17.70;;;6.60;87.80;;;5.28;81.94;96810.41;5030589;28;20555;-76
2022/04/22 02:21:36;;;;;;;21.90;18.93;;;6.60;87.80;;;5.35;82.10;96805.00;5026846;28;20458;-75
2022/04/22 02:24:03;;;;;;;24.00;18.50;;;6.60;87.50;;;5.30;81.62;96811.00;5027315;28;20454;-75
2022/04/22 02:28:31;;;;;;;23.23;19.67;;;6.60;87.70;;;4.75;81.79;96733.72;5037396;28;20486;-73
2022/04/22 02:29:17;;;;;;;20.83;17.57;;;6.50;88.00;;;5.22;81.98;96808.53;5034929;28;20457;-76
2022/04/22 02:31:44;;;;;;;22.23;19.93;;;6.50;88.50;;;5.16;82.05;96802.19;5034849;28;20508;-76
2022/04/22 02:34:11;;;;;;;24.60;19.47;;;6.50;88.30;;;5.07;82.56;96796.22;5037574;28;20476;-76
2022/04/22 02:36:39;;;;;;;23.73;20.40;;;6.40;89.20;;;5.05;82.78;96792.13;5035292;28;20561;-75
2022/04/22 02:39:07;;;;;;;22.47;18.13;;;6.30;89.90;;;5.04;83.38;96796.66;5032248;28;20461;-74
2022/04/22 02:47:06;;;;;;;23.73;19.77;;;6.30;89.90;;;5.03;83.15;96794.19;5038388;28;20909;-75
2022/04/22 02:49:33;;;;;;;26.10;20.00;;;6.30;89.60;;;4.98;83.39;96778.75;5031784;28;21031;-74
2022/04/22 02:52:01;;;;;;;22.40;19.13;;;6.30;89.70;;;5.03;82.77;96791.53;5037594;28;20470;-75
2022/04/22 02:54:30;;;;;;;21.87;18.27;;;6.30;89.40;;;4.89;83.57;96777.31;5032187;28;20512;-75
2022/04/22 02:56:57;;;;;;;22.60;18.30;;;6.30;89.40;;;4.92;83.35;96779.59;5035786;28;20468;-76
2022/04/22 02:59:26;;;;;;;21.77;19.13;;;6.20;90.20;;;4.90;83.40;96776.28;5038931;28;20448;-77
2022/04/22 03:01:53;;;;;;;23.60;19.43;;;6.20;90.30;;;4.88;83.49;96773.00;5033236;28;20620;-75
2022/04/22 03:04:20;;;;;;;21.03;17.60;;;6.20;90.40;;;4.78;83.48;96755.56;5036564;28;20813;-72
2022/04/22 03:06:47;;;;;;;23.80;18.80;;;6.10;90.40;;;4.76;83.73;96759.47;5028082;28;20923;-73
2022/04/22 03:09:14;;;;;;;24.87;18.53;;;6.10;90.40;;;4.90;83.80;96762.91;5024684;28;21136;-74
2022/04/22 03:11:41;;;;;;;24.00;18.70;;;6.10;90.30;;;4.72;83.26;96748.34;5028933;28;20458;-76
2022/04/22 03:14:08;;;;;;;23.40;18.87;;;6.10;90.20;;;4.77;83.19;96751.19;5027973;28;20476;-75
2022/04/22 03:16:36;;;;;;;21.43;17.70;;;6.10;90.50;;;4.72;83.89;96748.34;5027135;28;20446;-75
2022/04/22 03:19:03;;;;;;;21.53;18.50;;;6.00;90.60;;;4.54;84.26;96738.28;5030829;28;20548;-74
2022/04/22 03:21:30;;;;;;;21.33;18.57;;;5.90;90.90;;;4.45;85.32;96747.56;5023847;28;20545;-74
2022/04/22 03:23:57;;;;;;;25.20;18.43;;;5.70;91.50;;;4.28;86.35;96739.13;5024307;28;20789;-73
2022/04/22 03:26:25;;;;;;;22.03;17.90;;;5.60;91.90;;;4.22;86.17;96741.63;5026781;28;21485;-74
2022/04/22 03:28:52;;;;;;;22.07;18.60;;;5.60;92.30;;;4.29;86.74;96749.63;5032972;28;20461;-73
2022/04/22 03:31:20;;;;;;;22.47;19.07;;;5.60;93.00;;;4.23;86.46;96737.91;5038690;28;20442;-72
2022/04/22 03:33:48;;;;;;;23.97;18.37;;;5.60;92.60;;;4.43;84.96;96734.38;5038010;28;20964;-73
2022/04/22 03:36:15;;;;;;;23.37;19.80;;;5.70;92.50;;;4.37;85.69;96746.72;5020949;28;20480;-76
2022/04/22 03:38:43;;;;;;;20.63;17.70;;;5.70;92.10;;;4.22;85.72;96740.78;5021230;28;20454;-76
2022/04/22 03:41:11;;;;;;;23.60;18.20;;;5.60;92.20;;;4.24;86.53;96749.41;5039613;28;20461;-75
2022/04/22 03:43:39;;;;;;;23.23;20.03;;;5.60;92.50;;;4.22;86.35;96738.94;5027931;28;21086;-77
2022/04/22 03:46:07;;;;;;;22.83;19.80;;;5.50;92.70;;;4.07;86.84;96741.81;5027825;28;20462;-76
2022/04/22 03:48:34;;;;;;;24.50;18.90;;;5.40;92.90;;;4.03;87.16;96740.56;5031074;28;20478;-75
2022/04/22 03:51:02;;;;;;;20.60;17.80;;;5.40;93.90;;;4.00;87.50;96734.81;5055485;28;20884;-73
2022/04/22 03:53:29;;;;;;;20.90;17.80;;;5.30;93.90;;;3.99;87.80;96744.69;5040297;28;20464;-74
2022/04/22 03:58:10;;;;;;;25.10;18.37;;;5.30;94.00;;;4.29;86.49;96738.94;5048399;28;20490;-74
2022/04/22 03:58:42;;;;;;;21.63;17.50;;;5.50;93.20;;;4.25;85.50;96743.06;5046906;28;20446;-74
2022/04/22 04:01:09;;;;;;;20.20;16.57;;;5.50;92.70;;;4.37;85.53;96745.94;5041626;28;20460;-75
2022/04/22 04:03:36;;;;;;;23.27;18.07;;;5.50;92.60;;;4.32;85.38;96743.03;5039679;28;20465;-73
2022/04/22 04:06:07;;;;;;;19.23;16.87;;;5.60;92.00;;;4.32;85.08;96738.53;5027990;28;20808;-75
2022/04/22 04:08:34;;;;;;;18.53;16.50;;;5.60;92.00;;;4.28;85.06;96741.81;5048036;28;20937;-73
2022/04/22 04:16:33;;;;;;;18.93;16.93;;;5.50;92.70;;;4.38;84.72;96731.53;5041287;28;21096;-76
2022/04/22 04:24:41;;;;;;;21.20;18.03;;;5.80;91.00;;;4.70;83.50;96734.34;4940033;28;20792;-77
2022/04/22 04:27:08;;;;;;;19.97;16.83;;;5.90;91.00;;;4.72;82.92;96732.28;4943347;29;20533;-76
2022/04/22 04:29:35;;;;;;;19.57;17.27;;;6.00;90.40;;;4.85;83.41;96728.75;4984214;28;20454;-76
2022/04/22 04:32:02;;;;;;;20.43;16.30;;;6.10;90.20;;;5.13;82.62;96729.50;5042967;28;21047;-75
2022/04/22 04:34:29;;;;;;;17.83;15.73;;;6.40;89.50;;;5.50;80.61;96727.88;5033299;28;20477;-75
2022/04/22 04:36:57;;;;;;;17.77;15.33;;;6.70;87.00;;;5.93;78.55;96726.34;5026322;28;20470;-74
2022/04/22 04:39:24;;;;;;;20.47;16.93;;;7.10;83.70;;;6.21;76.91;96717.09;5028033;28;20510;-78
2022/04/22 04:41:53;;;;;;;21.80;16.63;;;7.50;81.50;;;6.64;74.67;96715.47;5025406;28;20462;-74
2022/04/22 04:44:20;;;;;;;18.93;15.57;;;8.00;79.80;;;6.92;73.50;96710.66;5038915;28;20525;-76
2022/04/22 04:46:47;;;;;;;16.60;14.80;;;8.30;77.60;;;7.11;71.67;96710.63;5025685;28;20541;-74
2022/04/22 04:49:14;;;;;;;17.63;14.17;;;8.50;75.80;;;7.29;70.99;96709.81;5026930;28;20465;-76
2022/04/22 04:51:41;;;;;;;17.63;15.30;;;8.70;75.10;;;7.25;71.01;96709.41;5023979;28;20537;-75
2022/04/22 04:54:09;;;;;;;19.73;15.53;;;8.80;74.50;;;7.34;70.28;96705.34;5033596;28;21074;-73
2022/04/22 04:56:36;;;;;;;17.20;15.47;;;8.90;73.70;;;7.74;69.38;96706.69;5030863;28;20508;-73
2022/04/22 04:59:04;;;;;;;16.83;14.90;;;9.20;73.30;;;7.81;68.77;96695.84;5027603;28;20965;-74
2022/04/22 05:01:30;;;;;;;16.17;13.50;;;9.50;72.70;;;8.14;67.27;96705.25;5024688;28;20446;-76
2022/04/22 05:03:57;;;;;;;16.77;14.40;;;9.80;71.10;;;8.30;66.46;96702.94;5024753;28;21167;-73
2022/04/22 05:06:24;;;;;;;15.57;13.93;;;9.80;70.50;;;8.24;67.00;96693.91;5029033;28;20540;-76
2022/04/22 05:08:51;;;;;;;15.07;13.47;;;9.90;70.40;;;8.24;66.22;96693.91;5029743;28;20472;-77
2022/04/22 05:11:19;;;;;;;17.43;14.23;;;10.00;68.60;;;8.26;66.44;96681.03;5028494;28;20556;-74
2022/04/22 05:13:46;;;;;;;15.80;14.20;;;9.90;69.60;;;8.18;66.53;96686.75;5026705;28;20462;-75
2022/04/22 05:16:13;;;;;;;15.23;13.27;;;10.10;68.10;;;8.22;66.13;96687.97;5038995;28;20469;-76
2022/04/22 05:18:40;;;;;;;14.37;12.90;;;10.00;68.10;;;8.44;65.74;96681.97;5025282;28;21530;-73
2022/04/22 05:21:08;;;;;;;16.63;14.03;;;10.00;68.10;;;8.61;65.21;96682.13;5042487;28;20450;-76
2022/04/22 05:23:35;;;;;;;17.00;13.77;;;10.30;67.40;;;8.60;64.22;96691.28;5026799;28;20455;-74
2022/04/22 05:26:03;;;;;;;15.70;13.70;;;10.50;66.40;;;8.54;65.21;96689.50;5024957;28;21048;-75
2022/04/22 05:28:31;;;;;;;15.87;14.20;;;10.40;66.80;;;8.90;64.18;96690.28;5022143;28;20520;-75
2022/04/22 05:33:45;;;;;;;16.80;14.73;;;10.90;65.50;;;8.83;63.75;96687.72;5036560;28;20487;-73
2022/04/22 05:36:12;;;;;;;15.77;14.20;;;10.90;65.00;;;8.64;64.67;96689.72;5019809;28;20462;-73
2022/04/22 05:38:39;;;;;;;15.40;13.80;;;10.60;65.20;;;9.06;63.11;96686.03;5021292;28;20545;-73
2022/04/22 05:41:06;;;;;;;17.77;14.13;;;10.80;65.10;;;9.47;62.43;96700.31;5023144;28;20570;-75
2022/04/22 05:43:34;;;;;;;15.47;13.87;;;11.30;64.50;;;9.38;62.18;96684.75;5028405;28;20531;-76
2022/04/22 05:46:01;;;;;;;15.13;13.33;;;11.30;63.60;;;9.82;60.55;96698.50;5029938;28;20937;-77
2022/04/22 05:48:28;;;;;;;17.33;15.10;;;11.40;63.40;;;8.91;63.10;96691.94;5027843;28;20448;-79
2022/04/22 05:50:55;;;;;;;15.53;13.70;;;11.10;63.10;;;8.48;64.78;96700.13;5028742;28;20483;-76
2022/04/22 05:53:22;;;;;;;17.07;14.80;;;10.20;64.80;;;8.32;65.17;96695.44;5037122;28;20461;-75
2022/04/22 05:55:49;;;;;;;17.37;14.87;;;9.90;66.70;;;8.08;65.61;96680.09;5029076;28;20548;-79
2022/04/22 05:58:17;;;;;;;19.87;14.97;;;9.60;67.30;;;8.40;65.55;96694.28;5032920;28;20550;-79
2022/04/22 06:00:45;;;;;;;17.50;14.93;;;9.70;68.10;;;8.60;64.54;96691.28;5028583;28;20566;-80
2022/04/22 06:03:12;;;;;;;16.17;14.17;;;9.90;67.50;;;8.36;65.38;96699.31;5029412;28;20490;-79
2022/04/22 06:05:39;;;;;;;17.57;14.53;;;9.70;67.40;;;8.53;64.82;96702.16;5031586;28;20545;-79
2022/04/22 06:10:53;;;;;;;17.03;15.23;;;9.90;67.60;;;8.69;64.03;96697.09;5037836;28;20504;-76
2022/04/22 06:13:20;;;;;;;16.40;14.07;;;10.00;65.90;;;8.63;64.08;96693.47;5025455;28;20446;-76
2022/04/22 06:15:48;;;;;;;16.57;14.40;;;10.00;66.00;;;8.49;64.83;96682.09;5029072;28;20569;-75
2022/04/22 06:18:15;;;;;;;17.70;15.90;;;9.90;67.10;;;8.49;64.92;96699.06;5024572;28;20502;-76
2022/04/22 06:20:42;;;;;;;16.43;14.17;;;9.80;67.30;;;8.79;64.12;96694.63;5030362;28;20465;-76
2022/04/22 06:23:09;;;;;;;16.07;14.30;;;10.00;66.30;;;8.83;63.93;96678.81;5023535;28;20520;-77
2022/04/22 06:25:36;;;;;;;16.03;14.40;;;10.10;65.80;;;8.92;63.12;96693.56;5022436;28;20474;-76
2022/04/22 06:28:06;;;;;;;17.57;15.43;;;10.20;65.80;;;8.67;64.12;96686.56;5023426;28;20506;-77
2022/04/22 06:30:33;;;;;;;18.47;14.53;;;10.10;65.70;;;8.49;64.71;96693.69;5018566;28;21114;-76
2022/04/22 06:33:03;;;;;;;15.87;14.23;;;9.80;67.00;;;8.78;63.87;96688.44;5020318;28;20494;-75
2022/04/22 06:35:35;;;;;;;17.23;15.43;;;10.00;66.10;;;8.59;64.34;96678.88;5028153;28;20536;-76
2022/04/22 06:38:03;;;;;;;17.60;14.90;;;9.90;66.60;;;8.54;64.03;96681.41;5024064;28;20468;-75
2022/04/22 06:46:01;;;;;;;17.63;15.27;;;9.90;67.10;;;8.52;64.56;96678.16;5039590;28;20580;-74
2022/04/22 06:48:33;;;;;;;16.17;14.57;;;9.80;66.90;;;8.63;64.18;96669.25;5025810;28;20871;-76
2022/04/22 06:51:02;;;;;;;15.93;14.20;;;9.80;66.90;;;8.75;63.90;96682.69;5024666;28;20458;-73
2022/04/22 06:53:30;;;;;;;15.00;13.50;;;9.90;66.90;;;8.76;63.38;96663.63;5022750;28;20453;-76
2022/04/22 06:56:00;;;;;;;16.33;14.63;;;10.00;65.70;;;8.88;63.00;96676.25;5022830;28;20509;-77
2022/04/22 06:58:27;;;;;;;15.63;14.00;;;10.10;65.50;;;9.00;62.62;96677.00;5025807;28;20467;-75
2022/04/22 07:00:55;;;;;;;14.90;13.40;;;10.20;65.10;;;8.98;62.57;96675.63;5022759;28;20505;-74
2022/04/22 07:03:22;;;;;;;16.87;15.10;;;10.30;65.00;;;9.09;61.70;96682.84;5024888;28;20461;-77
2022/04/22 07:05:53;;;;;;;16.10;14.50;;;10.40;64.50;;;9.09;62.35;96673.97;5024195;28;21172;-75
2022/04/22 07:08:21;;;;;;;20.70;14.60;;;10.30;65.10;;;9.29;62.13;96679.75;5020645;28;20453;-74
2022/04/22 07:10:50;;;;;;;15.20;13.60;;;10.50;64.60;;;9.31;61.58;96679.50;5025776;28;20457;-75
2022/04/22 07:13:19;;;;;;;16.73;15.10;;;10.50;64.30;;;9.42;60.54;96680.53;5037793;28;20542;-75
2022/04/22 07:15:48;;;;;;;19.43;16.00;;;10.70;63.80;;;9.33;61.03;96678.22;5024065;28;20474;-74
2022/04/22 07:18:17;;;;;;;16.97;15.27;;;10.60;63.70;;;9.43;60.94;96674.91;5028050;28;20615;-76
2022/04/22 07:20:45;;;;;;;16.13;14.43;;;10.70;63.50;;;9.69;60.45;96666.44;5023618;28;20542;-75
2022/04/22 07:23:14;;;;;;;16.87;14.93;;;10.80;63.30;;;9.80;60.11;96670.97;5040153;28;20450;-75
2022/04/22 07:25:46;;;;;;;15.83;13.53;;;11.00;62.80;;;9.83;59.88;96667.78;5023585;28;20804;-76
2022/04/22 07:28:14;;;;;;;17.50;15.30;;;11.00;62.70;;;10.28;58.07;96670.66;5021321;28;20482;-74
2022/04/22 07:30:46;;;;;;;15.97;14.23;;;11.50;62.30;;;10.38;58.29;96673.50;5025229;28;20831;-76
2022/04/22 07:33:14;;;;;;;15.17;13.57;;;11.60;61.70;;;10.73;57.84;96663.47;5027579;28;20521;-75
2022/04/22 07:35:42;;;;;;;15.37;13.87;;;11.80;62.00;;;10.71;56.82;96669.16;5018648;28;20528;-76
2022/04/22 07:38:11;;;;;;;15.30;13.80;;;12.00;60.90;;;10.87;56.62;96669.34;5021985;28;20562;-77
2022/04/22 07:40:43;;;;;;;15.57;14.07;;;12.10;61.20;;;10.53;57.03;96666.72;5022378;28;20448;-76
2022/04/22 07:48:42;;;;;;;15.17;13.73;;;11.60;60.90;;;10.40;57.93;96663.28;5028882;28;20489;-78
2022/04/22 07:51:09;;;;;;;15.30;13.77;;;11.60;61.00;;;10.75;56.95;96654.06;5028896;28;21808;-76
2022/04/22 07:53:37;;;;;;;14.80;13.30;;;11.90;60.80;;;10.80;56.76;96666.00;5031821;28;20463;-76
2022/04/22 07:56:07;;;;;;;15.10;13.47;;;12.00;60.10;;;10.97;56.37;96655.94;5047928;28;20996;-75
2022/04/22 07:58:34;;;;;;;15.90;14.20;;;12.10;60.30;;;10.93;56.32;96648.63;5033186;28;20938;-75
2022/04/22 08:01:01;;;;;;;15.17;13.40;;;12.10;59.80;;;11.25;56.15;96646.00;5025280;28;20490;-77
2022/04/22 08:03:28;;;;;;;15.63;14.03;;;12.30;60.20;;;10.95;56.03;96652.69;5024674;28;20447;-73
2022/04/22 08:05:55;;;;;;;15.40;13.90;;;12.20;59.40;;;10.85;56.57;96652.59;5033033;28;20848;-77
2022/04/22 08:08:22;;;;;;;15.30;13.80;;;12.10;59.20;;;11.16;55.92;96642.94;5050842;28;21107;-72
2022/04/22 08:10:49;;;;;;;14.40;12.90;;;12.20;59.60;;;11.51;54.68;96642.75;5034995;28;20564;-72
2022/04/22 08:13:17;;;;;;;14.83;13.20;;;12.50;59.40;;;11.59;54.35;96640.41;5032650;28;20467;-74
2022/04/22 08:15:45;;;;;;;13.00;11.67;;;12.70;58.80;;;11.70;54.15;96635.94;5034830;28;20471;-76
2022/04/22 08:18:13;;;;;;;14.33;12.93;;;12.70;58.40;;;11.48;54.28;96638.69;5027494;28;20462;-76
2022/04/22 08:20:40;;;;;;;14.47;13.17;;;12.70;57.90;;;11.21;54.50;96634.06;5027688;28;20547;-78
2022/04/22 08:23:07;;;;;;;14.33;12.93;;;12.50;57.80;;;11.28;54.68;96633.88;5027817;28;21221;-76
2022/04/22 08:25:34;;;;;;;16.37;12.20;;;12.40;58.10;;;11.53;53.88;96641.44;5024736;28;20597;-75
2022/04/22 08:28:02;;;;;;;23.93;12.23;;;12.60;58.00;;;11.65;53.14;96635.06;5025088;28;20460;-76
2022/04/22 08:30:31;;;;;;;14.63;13.23;;;12.80;57.20;;;11.68;53.41;96626.44;5023809;28;20447;-77
2022/04/22 08:33:01;;;;;;;15.73;13.37;;;12.80;57.30;;;11.47;54.22;96620.84;5025893;28;20538;-77
2022/04/22 08:35:29;;;;;;;15.30;12.13;;;12.70;57.50;;;11.75;53.10;96629.72;5030538;28;20442;-77
2022/04/22 08:37:58;;;;;;;14.63;13.13;;;12.80;57.20;;;12.10;52.75;96612.19;5037838;28;20451;-77
2022/04/22 08:40:27;;;;;;;14.10;12.70;;;13.10;57.60;;;12.16;52.42;96615.75;5028830;28;20504;-76
2022/04/22 08:42:56;;;;;;;15.03;13.50;;;13.20;57.00;;;12.02;52.10;96623.50;5032815;28;20461;-78
2022/04/22 08:45:26;;;;;;;17.17;14.27;;;13.20;56.70;;;11.77;52.07;96614.88;5027171;28;20556;-77
2022/04/22 08:50:42;;;;;;;13.73;12.40;;;13.00;56.60;;;11.84;51.77;96614.66;5030285;28;20467;-77
2022/04/22 08:53:15;;;;;;;14.27;12.77;;;12.90;55.70;;;12.09;51.70;96609.72;5030296;28;20513;-79
2022/04/22 08:55:43;;;;;;;14.97;11.50;;;13.10;56.10;;;12.26;50.92;96609.59;5023411;28;20528;-74
2022/04/22 08:58:13;;;;;;;12.57;11.27;;;13.30;55.40;;;12.30;50.62;96599.84;5022989;28;20453;-85
2022/04/22 09:00:43;;;;;;;15.37;11.93;;;13.40;55.10;;;12.27;50.99;96611.22;5029932;28;20544;-80
2022/04/22 09:03:12;;;;;;;12.67;11.47;;;13.40;55.30;;;12.34;51.00;96600.97;5027678;28;20532;-77
2022/04/22 09:05:39;;;;;;;12.83;11.30;;;13.40;55.20;;;12.49;50.51;96596.72;5023585;28;20502;-81
2022/04/22 09:08:09;;;;;;;12.80;11.50;;;13.60;55.20;;;12.26;50.76;96583.31;5026881;28;20879;-79
2022/04/22 09:10:38;;;;;;;12.77;11.57;;;13.50;54.60;;;12.45;51.18;96588.31;5026668;28;20454;-81
2022/04/22 09:13:09;;;;;;;12.20;11.10;;;13.50;55.30;;;12.78;49.91;96580.88;5026023;28;20595;-77
2022/04/22 09:15:38;;;;;;;13.23;11.73;;;13.80;54.90;;;12.95;49.95;96588.78;5020273;28;20549;-81
2022/04/22 09:18:14;;;;;;;14.43;11.87;;;13.90;55.00;;;12.92;49.44;96583.09;5024054;28;20471;-82
2022/04/22 09:20:41;;;;;;;12.33;11.30;;;14.00;54.20;;;12.95;49.43;96583.38;5028663;28;20456;-78
2022/04/22 09:23:30;;;;;;;11.80;10.60;;;14.00;54.20;;;13.12;48.41;96588.56;5027741;28;21051;-79
2022/04/22 09:25:57;;;;;;;11.30;10.03;;;14.20;53.60;;;13.10;48.79;96568.22;5025336;28;20449;-80
2022/04/22 09:28:24;;;;;;;11.07;10.07;;;14.20;54.00;;;13.31;48.47;96569.91;5025335;28;20496;-84
2022/04/22 09:31:00;;;;;;;11.67;10.63;;;14.30;53.80;;;13.33;48.62;96577.75;5025057;28;20514;-79
2022/04/22 09:33:35;;;;;;;12.07;10.87;;;14.40;53.50;;;13.09;48.53;96577.44;5034785;28;20463;-82
2022/04/22 09:44:24;;;;;;;11.27;10.27;;;14.60;52.80;;;13.63;47.57;96551.78;5004952;28;20441;-81
2022/04/22 09:47:11;;;;;;;11.03;10.00;;;14.70;52.70;;;13.58;46.97;96513.81;5028935;28;20458;-83
2022/04/22 09:49:43;;;;;;;10.50;9.60;;;14.80;52.60;;;14.06;46.90;96545.25;5035590;28;20462;-76
2022/04/22 09:52:10;;;;;;;10.20;9.17;;;15.00;52.50;;;14.37;46.60;96537.84;5029561;28;20460;-81
2022/04/22 09:54:39;;;;;;;10.50;9.50;;;15.30;52.70;;;14.64;46.09;96544.84;5024740;28;20465;-77
2022/04/22 09:57:09;;;;;;;9.97;9.07;;;15.50;52.50;;;14.43;45.41;96544.88;5035373;28;20820;-77
2022/04/22 10:00:04;;;;;;;10.37;9.47;;;15.50;51.70;;;14.23;45.75;96504.22;5025585;28;20543;-76
2022/04/22 10:02:32;;;;;;;11.07;9.97;;;15.50;51.80;;;14.51;45.31;96548.13;5032700;28;20464;-75
2022/04/22 10:05:08;;;;;;;11.97;10.87;;;15.50;51.30;;;14.12;45.44;96517.00;5025389;28;20462;-78
2022/04/22 10:07:37;;;;;;;10.47;9.47;;;15.40;51.20;;;14.11;45.58;96516.19;5022246;28;20477;-77
2022/04/22 10:10:06;;;;;;;10.47;9.43;;;15.30;50.90;;;14.35;45.21;96523.75;5021141;28;20458;-77
2022/04/22 10:12:37;;;;;;;11.80;10.70;;;15.40;51.20;;;14.26;45.87;96509.09;5041787;28;20535;-77
2022/04/22 10:15:09;;;;;;;10.00;8.83;;;15.50;51.40;;;14.37;45.80;96507.16;5026134;28;20463;-77
2022/04/22 10:17:38;;;;;;;8.80;8.00;;;15.50;51.20;;;14.65;45.20;96529.31;5027481;28;20472;-76
2022/04/22 10:20:08;;;;;;;10.43;9.53;;;15.60;51.10;;;14.89;44.74;96528.72;5025798;28;20476;-77
2022/04/22 10:22:36;;;;;;;10.60;9.60;;;15.80;51.10;;;14.78;44.38;96519.78;5028744;28;20469;-79
2022/04/22 10:25:06;;;;;;;10.13;9.23;;;15.90;50.60;;;14.60;44.87;96505.69;5038288;28;20457;-76
2022/04/22 10:30:44;;;;;;;10.83;9.37;;;15.80;50.30;;;14.70;44.48;96493.97;5029552;28;20464;-76
2022/04/22 10:33:13;;;;;;;10.40;9.50;;;15.90;50.50;;;14.97;44.33;96488.16;5024127;28;20458;-74
2022/04/22 10:38:58;;;;;;;10.50;9.50;;;16.30;50.40;;;15.44;43.72;96504.16;5024292;28;21092;-75
2022/04/22 10:41:26;;;;;;;10.07;9.17;;;16.40;50.10;;;15.49;42.98;96512.25;5018993;28;20448;-74
2022/04/22 10:49:38;;;;;;;9.50;8.70;;;16.70;50.00;;;15.97;42.33;96498.00;5028374;28;20449;-74
2022/04/22 10:55:11;;;;;;;9.73;8.90;;;17.20;49.60;;;16.21;41.65;96491.75;5018952;28;20466;-78
2022/04/22 10:57:42;;;;;;;10.53;9.47;;;17.20;49.00;;;16.37;41.87;96499.75;5042156;28;20551;-72
2022/04/22 11:00:37;;;;;;;9.70;8.80;;;17.30;49.30;;;16.51;41.27;96488.97;5048669;28;20969;-76
2022/04/22 11:03:14;;;;;;;9.67;8.70;;;17.50;49.10;;;16.88;41.01;96498.28;5023963;28;20458;-78
2022/04/22 11:06:00;;;;;;;9.40;8.70;;;17.80;49.00;;;16.88;40.55;96498.28;5025080;28;20450;-74
2022/04/22 11:08:31;;;;;;;8.50;7.80;;;17.80;48.60;;;16.68;41.01;96500.19;5020010;28;20843;-74
2022/04/22 11:11:19;;;;;;;9.57;8.67;;;17.70;48.70;;;16.39;40.61;96501.09;5026533;28;20498;-76
2022/04/22 11:13:50;;;;;;;9.30;8.50;;;17.50;48.50;;;16.36;41.21;96493.50;5024192;28;20457;-76
2022/04/22 11:16:29;;;;;;;10.40;8.53;;;17.40;48.30;;;15.99;41.71;96492.25;5033018;28;20458;-75
2022/04/22 11:19:25;;;;;;;9.10;8.20;;;17.20;48.30;;;16.29;41.50;96487.56;5024217;28;20830;-76
2022/04/22 11:21:57;;;;;;;9.10;8.30;;;17.30;48.40;;;16.18;41.54;96491.53;5027040;28;20443;-73
2022/04/22 11:24:28;;;;;;;9.17;8.27;;;17.20;48.40;;;15.93;42.08;96496.13;5023935;28;20462;-76
2022/04/22 11:27:08;;;;;;;11.47;7.93;;;17.00;48.50;;;15.86;42.54;96489.09;5020736;28;20454;-75